Kansas City, Missouri
Traffic Map
Current Weather Conditions
Kansas City, Missouri
Few Clouds
Few Clouds
64°
Feels Like: 64°
Wind Chill: 64° Ceiling: Unl
Heat Index: 64° Visibility: 10mi
Dew Point: 49° Wind: 7mph
Humidity: 58% Direction: 170° (S)
Pressure: 30.11in Gusts: 0mph
Raw Report DataKMKC 230454Z 17006KT 10SM FEW060 18/09 A3011 RMK AO2 SLP192 T01780094
Traffic Incident Summary
Active as of:
Severity:
Category:
InformationThere was an issue retrieving the traffic information for this location. Please try a different location or try again shortly.
Advertisements
Track Severe Weather on mobile